createdAt,value
2017-06-22T00:00:05.189Z,934.28
2017-06-22T00:00:33.385Z,934.28
2017-06-22T00:01:01.648Z,934.31
2017-06-22T00:01:29.813Z,934.32
2017-06-22T00:01:58.067Z,934.35
2017-06-22T00:02:26.361Z,934.32
2017-06-22T00:02:54.438Z,934.32
2017-06-22T00:03:22.535Z,934.37
2017-06-22T00:03:50.698Z,934.33
2017-06-22T00:04:18.868Z,934.37
2017-06-22T00:05:29.795Z,934.35
2017-06-22T00:05:57.969Z,934.39
2017-06-22T00:06:26.257Z,934.43
2017-06-22T00:06:54.424Z,934.41
2017-06-22T00:07:22.587Z,934.41
2017-06-22T00:07:50.842Z,934.37
2017-06-22T00:08:19.121Z,934.36
2017-06-22T00:08:47.289Z,934.44
2017-06-22T00:09:15.488Z,934.4
2017-06-22T00:09:43.746Z,934.39
2017-06-22T00:10:12.012Z,934.43
2017-06-22T00:11:23.127Z,934.44
2017-06-22T00:11:51.101Z,934.46
2017-06-22T00:12:19.293Z,934.47
2017-06-22T00:12:47.176Z,934.44
2017-06-22T00:13:15.339Z,934.47
2017-06-22T00:13:43.498Z,934.46
2017-06-22T00:14:11.778Z,934.48
2017-06-22T00:14:39.948Z,934.46
2017-06-22T00:15:08.235Z,934.47
2017-06-22T00:15:36.497Z,934.47
2017-06-22T00:16:04.676Z,934.44
2017-06-22T00:17:15.977Z,934.42
2017-06-22T00:17:44.139Z,934.46
2017-06-22T00:18:12.424Z,934.47
2017-06-22T00:18:40.593Z,934.48
2017-06-22T00:19:08.852Z,934.51
2017-06-22T00:19:37.013Z,934.51
2017-06-22T00:20:05.295Z,934.48
2017-06-22T00:20:33.557Z,934.52
2017-06-22T00:21:01.756Z,934.49
2017-06-22T00:21:29.919Z,934.53
2017-06-22T00:21:58.190Z,934.57
2017-06-22T00:23:09.400Z,934.53
2017-06-22T00:23:37.654Z,934.54
2017-06-22T00:24:05.948Z,934.54
2017-06-22T00:24:34.023Z,934.56
2017-06-22T00:25:02.197Z,934.6
2017-06-22T00:25:30.440Z,934.54
2017-06-22T00:25:58.624Z,934.57
2017-06-22T00:26:26.791Z,934.58
2017-06-22T00:26:54.798Z,934.54
2017-06-22T00:27:22.968Z,934.55
2017-06-22T00:27:51.235Z,934.55
2017-06-22T00:29:02.445Z,934.56
2017-06-22T00:29:30.701Z,934.62
2017-06-22T00:29:58.993Z,934.56
2017-06-22T00:30:27.066Z,934.57
2017-06-22T00:30:55.325Z,934.52
2017-06-22T00:31:23.579Z,934.52
2017-06-22T00:31:51.865Z,934.54
2017-06-22T00:32:20.035Z,934.53
2017-06-22T00:32:48.322Z,934.54
2017-06-22T00:33:16.494Z,934.56
2017-06-22T00:33:44.568Z,934.52
2017-06-22T00:34:55.782Z,934.55
2017-06-22T00:35:23.943Z,934.57
2017-06-22T00:35:52.041Z,934.53
2017-06-22T00:36:20.210Z,934.56
2017-06-22T00:36:48.277Z,934.56
2017-06-22T00:37:16.439Z,934.59
2017-06-22T00:37:44.722Z,934.58
2017-06-22T00:38:12.992Z,934.56
2017-06-22T00:38:41.278Z,934.58
2017-06-22T00:39:09.354Z,934.61
2017-06-22T00:39:37.531Z,934.64
2017-06-22T00:40:48.738Z,934.65
2017-06-22T00:41:16.720Z,934.63
2017-06-22T00:41:44.915Z,934.64
2017-06-22T00:42:13.084Z,934.66
2017-06-22T00:42:41.160Z,934.65
2017-06-22T00:43:09.324Z,934.68
2017-06-22T00:43:37.609Z,934.63
2017-06-22T00:44:05.876Z,934.64
2017-06-22T00:44:34.169Z,934.66
2017-06-22T00:45:02.343Z,934.67
2017-06-22T00:45:30.520Z,934.65
2017-06-22T00:46:41.823Z,934.68
2017-06-22T00:47:09.992Z,934.66
2017-06-22T00:47:38.192Z,934.65
2017-06-22T00:48:06.301Z,934.64
2017-06-22T00:48:34.460Z,934.62
2017-06-22T00:49:02.633Z,934.65
2017-06-22T00:49:30.953Z,934.67
2017-06-22T00:49:59.153Z,934.65
2017-06-22T00:50:27.324Z,934.7
2017-06-22T00:50:55.492Z,934.65
2017-06-22T00:51:23.583Z,934.67
2017-06-22T00:52:34.891Z,934.67
2017-06-22T00:53:03.050Z,934.67
2017-06-22T00:53:31.061Z,934.68
2017-06-22T00:53:59.136Z,934.69
2017-06-22T00:54:27.301Z,934.7
2017-06-22T00:54:55.369Z,934.68
2017-06-22T00:55:23.653Z,934.66
2017-06-22T00:55:51.732Z,934.71
2017-06-22T00:56:20.018Z,934.69
2017-06-22T00:56:48.189Z,934.68
2017-06-22T00:57:16.174Z,934.72
2017-06-22T00:58:27.385Z,934.7
2017-06-22T00:58:55.640Z,934.76
2017-06-22T00:59:23.943Z,934.7
2017-06-22T00:59:52.024Z,934.69
2017-06-22T01:00:20.278Z,934.7
2017-06-22T01:00:48.349Z,934.72
2017-06-22T01:01:16.537Z,934.71
2017-06-22T01:01:44.703Z,934.68
2017-06-22T01:02:12.801Z,934.72
2017-06-22T01:02:41.066Z,934.69
2017-06-22T01:03:09.242Z,934.74
2017-06-22T01:04:20.544Z,934.75
2017-06-22T01:04:48.800Z,934.76
2017-06-22T01:05:16.904Z,934.73
2017-06-22T01:05:45.072Z,934.79
2017-06-22T01:06:13.141Z,934.72
2017-06-22T01:06:41.211Z,934.71
2017-06-22T01:07:09.210Z,934.78
2017-06-22T01:07:37.384Z,934.73
2017-06-22T01:08:05.579Z,934.77
2017-06-22T01:08:33.752Z,934.76
2017-06-22T01:09:02.045Z,934.73
2017-06-22T01:10:13.330Z,934.77
2017-06-22T01:10:41.487Z,934.69
2017-06-22T01:11:09.775Z,934.72
2017-06-22T01:11:38.039Z,934.72
2017-06-22T01:12:06.205Z,934.71
2017-06-22T01:12:34.275Z,934.7
2017-06-22T01:13:02.463Z,934.74
2017-06-22T01:13:30.731Z,934.7
2017-06-22T01:13:59.021Z,934.67
2017-06-22T01:14:27.185Z,934.67
2017-06-22T01:14:55.264Z,934.68
2017-06-22T01:16:06.566Z,934.69
2017-06-22T01:16:34.823Z,934.65
2017-06-22T01:17:03.016Z,934.65
2017-06-22T01:17:31.183Z,934.65
2017-06-22T01:17:59.352Z,934.63
2017-06-22T01:18:27.423Z,934.66
2017-06-22T01:18:55.608Z,934.61
2017-06-22T01:19:23.870Z,934.63
2017-06-22T01:19:52.164Z,934.65
2017-06-22T01:20:20.331Z,934.63
2017-06-22T01:20:48.501Z,934.66
2017-06-22T01:21:59.750Z,934.64
2017-06-22T01:22:27.914Z,934.65
2017-06-22T01:22:55.922Z,934.66
2017-06-22T01:23:24.184Z,934.64
2017-06-22T01:23:52.251Z,934.61
2017-06-22T01:24:20.505Z,934.6
2017-06-22T01:24:48.600Z,934.56
2017-06-22T01:25:16.770Z,934.56
2017-06-22T01:25:44.963Z,934.53
2017-06-22T01:26:13.133Z,934.55
2017-06-22T01:26:41.216Z,934.52
2017-06-22T01:27:52.426Z,934.53
2017-06-22T01:28:20.586Z,934.5
2017-06-22T01:28:48.875Z,934.55
2017-06-22T01:29:17.042Z,934.5
2017-06-22T01:29:45.201Z,934.53
2017-06-22T01:30:13.269Z,934.5
2017-06-22T01:30:41.549Z,934.49
2017-06-22T01:31:09.617Z,934.5
2017-06-22T01:31:37.811Z,934.5
2017-06-22T01:32:05.885Z,934.49
2017-06-22T01:32:34.159Z,934.5
2017-06-22T01:33:45.368Z,934.51
2017-06-22T01:34:13.529Z,934.47
2017-06-22T01:34:41.629Z,934.5
2017-06-22T01:35:09.706Z,934.47
2017-06-22T01:35:37.681Z,934.5
2017-06-22T01:36:05.846Z,934.54
2017-06-22T01:36:34.029Z,934.47
2017-06-22T01:37:02.203Z,934.51
2017-06-22T01:37:30.491Z,934.5
2017-06-22T01:37:58.693Z,934.5
2017-06-22T01:38:26.865Z,934.48
2017-06-22T01:39:38.077Z,934.52
2017-06-22T01:40:06.235Z,934.52
2017-06-22T01:40:34.441Z,934.53
2017-06-22T01:41:02.521Z,934.54
2017-06-22T01:41:30.685Z,934.56
2017-06-22T01:41:58.844Z,934.54
2017-06-22T01:42:26.942Z,934.54
2017-06-22T01:42:55.121Z,934.57
2017-06-22T01:43:23.224Z,934.53
2017-06-22T01:43:51.393Z,934.57
2017-06-22T01:44:19.665Z,934.54
2017-06-22T01:45:30.778Z,934.56
2017-06-22T01:45:58.848Z,934.59
2017-06-22T01:46:27.047Z,934.58
2017-06-22T01:46:55.308Z,934.55
2017-06-22T01:47:23.570Z,934.56
2017-06-22T01:47:51.828Z,934.57
2017-06-22T01:48:19.927Z,934.55
2017-06-22T01:48:48.193Z,934.57
2017-06-22T01:49:16.393Z,934.55
2017-06-22T01:49:44.654Z,934.56
2017-06-22T01:50:12.837Z,934.55
2017-06-22T01:51:24.143Z,934.54
2017-06-22T01:51:52.213Z,934.54
2017-06-22T01:52:20.318Z,934.56
2017-06-22T01:52:48.484Z,934.53
2017-06-22T01:53:16.562Z,934.54
2017-06-22T01:53:44.722Z,934.53
2017-06-22T01:54:12.814Z,934.52
2017-06-22T01:54:41.088Z,934.49
2017-06-22T01:55:09.185Z,934.47
2017-06-22T01:55:37.451Z,934.48
2017-06-22T01:56:05.529Z,934.48
2017-06-22T01:57:16.836Z,934.47
2017-06-22T01:57:45.005Z,934.47
2017-06-22T01:58:13.205Z,934.48
2017-06-22T01:58:41.463Z,934.45
2017-06-22T01:59:09.722Z,934.46
2017-06-22T01:59:37.882Z,934.46
2017-06-22T02:00:05.973Z,934.48
2017-06-22T02:00:34.239Z,934.46
2017-06-22T02:01:02.531Z,934.48
2017-06-22T02:01:30.695Z,934.47
2017-06-22T02:01:58.873Z,934.43
2017-06-22T02:03:10.180Z,934.45
2017-06-22T02:03:38.349Z,934.47
2017-06-22T02:04:06.646Z,934.46
2017-06-22T02:04:34.815Z,934.46
2017-06-22T02:05:02.983Z,934.47
2017-06-22T02:05:31.244Z,934.45
2017-06-22T02:05:59.441Z,934.49
2017-06-22T02:06:27.614Z,934.46
2017-06-22T02:06:55.716Z,934.53
2017-06-22T02:07:23.884Z,934.5
2017-06-22T02:07:51.966Z,934.51
2017-06-22T02:09:03.085Z,934.5
2017-06-22T02:09:31.153Z,934.48
2017-06-22T02:09:59.159Z,934.5
2017-06-22T02:10:27.419Z,934.53
2017-06-22T02:10:55.587Z,934.47
2017-06-22T02:11:23.750Z,934.49
2017-06-22T02:11:52.035Z,934.48
2017-06-22T02:12:20.201Z,934.47
2017-06-22T02:12:48.299Z,934.45
2017-06-22T02:13:16.463Z,934.47
2017-06-22T02:13:44.449Z,934.45
2017-06-22T02:14:55.658Z,934.43
2017-06-22T02:15:23.819Z,934.44
2017-06-22T02:15:51.828Z,934.42
2017-06-22T02:16:19.995Z,934.44
2017-06-22T02:16:48.166Z,934.42
2017-06-22T02:17:16.237Z,934.43
2017-06-22T02:17:44.520Z,934.38
2017-06-22T02:18:12.698Z,934.37
2017-06-22T02:18:40.988Z,934.36
2017-06-22T02:19:09.156Z,934.37
2017-06-22T02:19:37.333Z,934.38
2017-06-22T02:20:48.639Z,934.34
2017-06-22T02:21:16.618Z,934.34
2017-06-22T02:21:44.912Z,934.32
2017-06-22T02:22:13.077Z,934.31
2017-06-22T02:22:41.253Z,934.31
2017-06-22T02:23:09.229Z,934.27
2017-06-22T02:23:37.418Z,934.29
2017-06-22T02:24:05.594Z,934.29
2017-06-22T02:24:33.694Z,934.27
2017-06-22T02:25:01.956Z,934.29
2017-06-22T02:25:30.133Z,934.28
2017-06-22T02:26:41.346Z,934.21
2017-06-22T02:27:09.326Z,934.24
2017-06-22T02:27:37.617Z,934.26
2017-06-22T02:28:05.876Z,934.25
2017-06-22T02:28:34.048Z,934.27
2017-06-22T02:29:02.036Z,934.27
2017-06-22T02:29:30.206Z,934.27
2017-06-22T02:29:58.383Z,934.28
2017-06-22T02:30:26.670Z,934.27
2017-06-22T02:30:54.753Z,934.29
2017-06-22T02:31:22.926Z,934.31
2017-06-22T02:32:34.137Z,934.32
2017-06-22T02:33:02.395Z,934.31
2017-06-22T02:33:30.688Z,934.33
2017-06-22T02:33:58.859Z,934.33
2017-06-22T02:34:27.023Z,934.34
2017-06-22T02:34:55.000Z,934.33
2017-06-22T02:35:23.099Z,934.34
2017-06-22T02:35:51.270Z,934.29
2017-06-22T02:36:19.574Z,934.29
2017-06-22T02:36:47.825Z,934.31
2017-06-22T02:37:15.908Z,934.29
2017-06-22T02:38:27.214Z,934.32
2017-06-22T02:38:55.187Z,934.31
2017-06-22T02:39:23.288Z,934.3
2017-06-22T02:39:51.458Z,934.3
2017-06-22T02:40:19.623Z,934.29
2017-06-22T02:40:47.599Z,934.29
2017-06-22T02:41:15.694Z,934.28
2017-06-22T02:41:43.956Z,934.3
2017-06-22T02:42:12.147Z,934.3
2017-06-22T02:42:40.410Z,934.31
2017-06-22T02:43:08.585Z,934.28
2017-06-22T02:44:19.796Z,934.3
2017-06-22T02:44:47.959Z,934.3
2017-06-22T02:45:16.155Z,934.32
2017-06-22T02:45:44.327Z,934.29
2017-06-22T02:46:12.496Z,934.28
2017-06-22T02:46:40.562Z,934.31
2017-06-22T02:47:08.746Z,934.31
2017-06-22T02:47:36.920Z,934.29
2017-06-22T02:48:05.209Z,934.27
2017-06-22T02:48:33.473Z,934.27
2017-06-22T02:49:01.562Z,934.26
2017-06-22T02:50:12.865Z,934.27
2017-06-22T02:50:40.940Z,934.31
2017-06-22T02:51:09.043Z,934.26
2017-06-22T02:51:37.215Z,934.24
2017-06-22T02:52:05.471Z,934.25
2017-06-22T02:52:33.439Z,934.25
2017-06-22T02:53:01.532Z,934.24
2017-06-22T02:53:29.704Z,934.26
2017-06-22T02:53:57.993Z,934.25
2017-06-22T02:54:26.167Z,934.23
2017-06-22T02:54:54.254Z,934.25
2017-06-22T02:56:05.555Z,934.3
2017-06-22T02:56:33.722Z,934.28
2017-06-22T02:57:02.012Z,934.25
2017-06-22T02:57:30.181Z,934.23
2017-06-22T02:57:58.441Z,934.2
2017-06-22T02:58:26.507Z,934.23
2017-06-22T02:58:54.690Z,934.25
2017-06-22T02:59:22.869Z,934.24
2017-06-22T02:59:51.157Z,934.21
2017-06-22T03:00:19.325Z,934.2
2017-06-22T03:00:47.407Z,934.22
2017-06-22T03:01:58.524Z,934.21
2017-06-22T03:02:26.681Z,934.22
2017-06-22T03:02:54.872Z,934.21
2017-06-22T03:03:23.045Z,934.2
2017-06-22T03:03:51.301Z,934.2
2017-06-22T03:04:19.563Z,934.22
2017-06-22T03:04:47.657Z,934.19
2017-06-22T03:05:15.935Z,934.14
2017-06-22T03:05:44.118Z,934.17
2017-06-22T03:06:12.286Z,934.15
2017-06-22T03:06:40.554Z,934.14
2017-06-22T03:07:51.669Z,934.19
2017-06-22T03:08:19.825Z,934.15
2017-06-22T03:08:48.018Z,934.17
2017-06-22T03:09:16.199Z,934.17
2017-06-22T03:09:44.360Z,934.11
2017-06-22T03:10:12.430Z,934.12
2017-06-22T03:10:40.619Z,934.12
2017-06-22T03:11:08.891Z,934.11
2017-06-22T03:11:37.178Z,934.09
2017-06-22T03:12:05.343Z,934.11
2017-06-22T03:12:33.515Z,934.1
2017-06-22T03:13:44.816Z,934.14
2017-06-22T03:14:12.976Z,934.13
2017-06-22T03:14:41.171Z,934.12
2017-06-22T03:15:09.437Z,934.15
2017-06-22T03:15:37.702Z,934.11
2017-06-22T03:16:05.968Z,934.11
2017-06-22T03:16:34.157Z,934.12
2017-06-22T03:17:02.334Z,934.1
2017-06-22T03:17:30.530Z,934.13
2017-06-22T03:17:58.798Z,934.14
2017-06-22T03:18:26.874Z,934.16
2017-06-22T03:19:38.175Z,934.1
2017-06-22T03:20:06.427Z,934.1
2017-06-22T03:20:34.618Z,934.15
2017-06-22T03:21:02.888Z,934.13
2017-06-22T03:21:31.148Z,934.09
2017-06-22T03:21:59.315Z,934.07
2017-06-22T03:22:27.411Z,934.11
2017-06-22T03:22:55.677Z,934.07
2017-06-22T03:23:23.970Z,934.1
2017-06-22T03:23:52.136Z,934.08
2017-06-22T03:24:20.310Z,934.09
2017-06-22T03:25:31.521Z,934.05
2017-06-22T03:25:59.586Z,934.08
2017-06-22T03:26:27.778Z,934.08
2017-06-22T03:26:55.863Z,934.09
2017-06-22T03:27:24.120Z,934.07
2017-06-22T03:27:52.191Z,934.09
2017-06-22T03:28:20.385Z,934.07
2017-06-22T03:28:48.661Z,934.05
2017-06-22T03:29:16.861Z,934.03
2017-06-22T03:29:45.123Z,934.06
2017-06-22T03:30:13.113Z,934.07
2017-06-22T03:31:24.418Z,934.08
2017-06-22T03:31:52.486Z,934.04
2017-06-22T03:32:20.774Z,934.03
2017-06-22T03:32:49.043Z,934.05
2017-06-22T03:33:17.208Z,934.07
2017-06-22T03:33:45.184Z,934.03
2017-06-22T03:34:13.372Z,934.05
2017-06-22T03:34:41.459Z,934
2017-06-22T03:35:09.656Z,934.06
2017-06-22T03:35:37.922Z,934.01
2017-06-22T03:36:05.908Z,934.04
2017-06-22T03:37:17.210Z,934.08
2017-06-22T03:37:45.282Z,934.06
2017-06-22T03:38:13.559Z,934.07
2017-06-22T03:38:41.728Z,934.08
2017-06-22T03:39:09.800Z,934.05
2017-06-22T03:39:38.060Z,934.07
2017-06-22T03:40:06.150Z,934.08
2017-06-22T03:40:34.425Z,934.11
2017-06-22T03:41:02.713Z,934.04
2017-06-22T03:41:30.783Z,934.06
2017-06-22T03:41:58.957Z,934.05
2017-06-22T03:43:09.981Z,934.03
2017-06-22T03:43:38.234Z,934.06
2017-06-22T03:44:06.423Z,934.09
2017-06-22T03:44:34.681Z,934.08
2017-06-22T03:45:02.840Z,934.07
2017-06-22T03:45:31.007Z,934.1
2017-06-22T03:45:59.191Z,934.06
2017-06-22T03:46:27.464Z,934.07
2017-06-22T03:46:55.471Z,934.09
2017-06-22T03:47:23.644Z,934.09
2017-06-22T03:47:51.635Z,934.11
2017-06-22T03:49:02.847Z,934.1
2017-06-22T03:49:31.007Z,934.14
2017-06-22T03:49:59.292Z,934.09
2017-06-22T03:50:27.568Z,934.11
2017-06-22T03:50:55.823Z,934.12
2017-06-22T03:51:23.995Z,934.1
2017-06-22T03:51:52.180Z,934.1
2017-06-22T03:52:20.365Z,934.11
2017-06-22T03:52:48.463Z,934.12
2017-06-22T03:53:16.728Z,934.11
2017-06-22T03:53:44.899Z,934.12
2017-06-22T03:54:56.111Z,934.1
2017-06-22T03:55:24.181Z,934.08
2017-06-22T03:55:52.467Z,934.07
2017-06-22T03:56:20.640Z,934.09
2017-06-22T03:56:48.812Z,934.08
2017-06-22T03:57:16.885Z,934.11
2017-06-22T03:57:45.165Z,934.12
2017-06-22T03:58:13.342Z,934.09
2017-06-22T03:58:41.632Z,934.05
2017-06-22T03:59:09.901Z,934.12
2017-06-22T03:59:37.977Z,934.14
2017-06-22T04:00:49.284Z,934.1
2017-06-22T04:01:17.252Z,934.07
2017-06-22T04:01:45.440Z,934.03
2017-06-22T04:02:13.708Z,934.04
2017-06-22T04:02:41.874Z,934.08
2017-06-22T04:03:09.953Z,934.12
2017-06-22T04:03:38.238Z,934.02
2017-06-22T04:04:06.418Z,934.02
2017-06-22T04:04:34.610Z,933.98
2017-06-22T04:05:02.683Z,934
2017-06-22T04:05:30.858Z,933.98
2017-06-22T04:06:42.066Z,933.98
2017-06-22T04:07:10.228Z,933.98
2017-06-22T04:07:38.422Z,933.98
2017-06-22T04:08:06.509Z,933.94
2017-06-22T04:08:34.771Z,933.95
2017-06-22T04:09:03.032Z,933.97
2017-06-22T04:09:31.311Z,933.99
2017-06-22T04:09:59.487Z,933.96
2017-06-22T04:10:27.777Z,933.94
2017-06-22T04:10:56.041Z,933.98
2017-06-22T04:11:24.310Z,933.94
2017-06-22T04:12:35.609Z,933.92
2017-06-22T04:13:03.677Z,933.96
2017-06-22T04:13:31.873Z,933.9
2017-06-22T04:13:59.952Z,933.89
2017-06-22T04:14:28.126Z,933.89
2017-06-22T04:14:56.290Z,933.94
2017-06-22T04:15:24.569Z,933.99
2017-06-22T04:15:52.840Z,933.88
2017-06-22T04:16:20.943Z,933.9
2017-06-22T04:16:49.205Z,933.88
2017-06-22T04:17:17.292Z,933.87
2017-06-22T04:18:28.495Z,933.88
2017-06-22T04:18:56.655Z,933.9
2017-06-22T04:19:24.847Z,933.86
2017-06-22T04:19:53.026Z,933.89
2017-06-22T04:20:21.291Z,933.9
2017-06-22T04:20:49.554Z,933.9
2017-06-22T04:21:17.834Z,933.9
2017-06-22T04:21:46.008Z,933.9
2017-06-22T04:22:14.201Z,933.96
2017-06-22T04:22:42.374Z,933.84
2017-06-22T04:23:10.550Z,933.87
2017-06-22T04:24:21.849Z,933.88
2017-06-22T04:24:49.820Z,933.87
2017-06-22T04:25:17.917Z,933.89
2017-06-22T04:25:46.183Z,933.88
2017-06-22T04:26:14.254Z,933.83
2017-06-22T04:26:42.419Z,933.84
2017-06-22T04:27:10.700Z,933.81
2017-06-22T04:27:38.876Z,933.84
2017-06-22T04:28:07.162Z,933.82
2017-06-22T04:28:35.144Z,933.83
2017-06-22T04:29:03.035Z,933.84
2017-06-22T04:30:14.244Z,933.83
2017-06-22T04:30:42.308Z,933.76
2017-06-22T04:31:10.311Z,933.76
2017-06-22T04:31:38.491Z,933.79
2017-06-22T04:32:06.745Z,933.78
2017-06-22T04:32:34.813Z,933.84
2017-06-22T04:33:02.995Z,933.76
2017-06-22T04:33:31.260Z,933.8
2017-06-22T04:33:59.454Z,933.85
2017-06-22T04:34:27.617Z,933.84
2017-06-22T04:34:55.794Z,933.83
2017-06-22T04:36:07.008Z,933.75
2017-06-22T04:36:35.171Z,933.75
2017-06-22T04:37:03.275Z,933.75
2017-06-22T04:37:31.538Z,933.7
2017-06-22T04:37:59.614Z,933.71
2017-06-22T04:38:27.583Z,933.76
2017-06-22T04:38:55.669Z,933.75
2017-06-22T04:39:23.745Z,933.75
2017-06-22T04:39:51.841Z,933.69
2017-06-22T04:40:19.907Z,933.71
2017-06-22T04:40:47.987Z,933.69
2017-06-22T04:41:59.289Z,933.73
2017-06-22T04:42:27.360Z,933.68
2017-06-22T04:42:55.645Z,933.7
2017-06-22T04:43:23.904Z,933.68
2017-06-22T04:43:51.973Z,933.67
2017-06-22T04:44:20.227Z,933.66
2017-06-22T04:44:48.408Z,933.64
2017-06-22T04:45:16.579Z,933.64
2017-06-22T04:45:44.862Z,933.61
2017-06-22T04:46:12.934Z,933.6
2017-06-22T04:46:41.108Z,933.6
2017-06-22T04:47:52.410Z,933.57
2017-06-22T04:48:20.572Z,933.61
2017-06-22T04:48:48.857Z,933.58
2017-06-22T04:49:17.023Z,933.59
2017-06-22T04:49:45.095Z,933.61
2017-06-22T04:50:13.346Z,933.63
2017-06-22T04:50:41.437Z,933.61
2017-06-22T04:51:09.512Z,933.62
2017-06-22T04:51:37.702Z,933.6
2017-06-22T04:52:05.777Z,933.63
2017-06-22T04:52:33.947Z,933.63
2017-06-22T04:53:44.963Z,933.58
2017-06-22T04:54:13.222Z,933.61
2017-06-22T04:54:41.514Z,933.57
2017-06-22T04:55:09.582Z,933.58
2017-06-22T04:55:37.651Z,933.59
2017-06-22T04:56:05.812Z,933.58
2017-06-22T04:56:33.999Z,933.57
2017-06-22T04:57:02.257Z,933.57
2017-06-22T04:57:30.455Z,933.58
2017-06-22T04:57:58.712Z,933.59
2017-06-22T04:58:26.698Z,933.58
2017-06-22T04:59:37.829Z,933.59
2017-06-22T05:00:05.990Z,933.59
2017-06-22T05:00:34.093Z,933.56
2017-06-22T05:01:02.211Z,933.57
2017-06-22T05:01:30.288Z,933.56
2017-06-22T05:01:58.445Z,933.54
2017-06-22T05:02:26.727Z,933.58
2017-06-22T05:02:54.988Z,933.56
2017-06-22T05:03:22.900Z,933.51
2017-06-22T05:03:50.879Z,933.51
2017-06-22T05:04:19.059Z,933.53
2017-06-22T05:05:30.078Z,933.52
2017-06-22T05:05:58.049Z,933.56
2017-06-22T05:06:26.247Z,933.58
2017-06-22T05:06:54.514Z,933.47
2017-06-22T05:07:22.578Z,933.53
2017-06-22T05:07:50.830Z,933.51
2017-06-22T05:08:19.016Z,933.48
2017-06-22T05:08:47.278Z,933.46
2017-06-22T05:09:15.398Z,933.5
2017-06-22T05:09:43.466Z,933.5
2017-06-22T05:10:11.553Z,933.49
2017-06-22T05:11:22.763Z,933.43
2017-06-22T05:11:51.019Z,933.45
2017-06-22T05:12:19.306Z,933.49
2017-06-22T05:12:47.569Z,933.47
2017-06-22T05:13:15.739Z,933.46
2017-06-22T05:13:43.905Z,933.47
2017-06-22T05:14:12.091Z,933.5
2017-06-22T05:14:40.264Z,933.48
2017-06-22T05:15:08.366Z,933.43
2017-06-22T05:15:36.437Z,933.44
2017-06-22T05:16:04.704Z,933.45
2017-06-22T05:17:15.916Z,933.42
2017-06-22T05:17:44.078Z,933.45
2017-06-22T05:18:12.272Z,933.46
2017-06-22T05:18:40.440Z,933.46
2017-06-22T05:19:08.418Z,933.47
2017-06-22T05:19:36.579Z,933.47
2017-06-22T05:20:04.856Z,933.43
2017-06-22T05:20:33.027Z,933.38
2017-06-22T05:21:01.314Z,933.4
2017-06-22T05:21:29.383Z,933.41
2017-06-22T05:21:57.559Z,933.41
2017-06-22T05:23:08.857Z,933.42
2017-06-22T05:23:37.114Z,933.39
2017-06-22T05:24:05.399Z,933.37
2017-06-22T05:24:33.474Z,933.35
2017-06-22T05:25:01.736Z,933.4
2017-06-22T05:25:29.988Z,933.34
2017-06-22T05:25:58.269Z,933.37
2017-06-22T05:26:26.437Z,933.39
2017-06-22T05:26:54.439Z,933.35
2017-06-22T05:27:22.419Z,933.34
2017-06-22T05:27:50.500Z,933.37
2017-06-22T05:29:01.802Z,933.35
2017-06-22T05:29:29.863Z,933.39
2017-06-22T05:29:58.062Z,933.35
2017-06-22T05:30:26.040Z,933.34
2017-06-22T05:30:54.211Z,933.33
2017-06-22T05:31:22.373Z,933.37
2017-06-22T05:31:50.659Z,933.35
2017-06-22T05:32:18.827Z,933.31
2017-06-22T05:32:47.021Z,933.31
2017-06-22T05:33:15.285Z,933.35
2017-06-22T05:33:43.553Z,933.34
2017-06-22T05:34:54.763Z,933.29
2017-06-22T05:35:22.923Z,933.3
2017-06-22T05:35:51.213Z,933.3
2017-06-22T05:36:19.475Z,933.29
2017-06-22T05:36:47.641Z,933.26
2017-06-22T05:37:15.805Z,933.26
2017-06-22T05:37:43.998Z,933.23
2017-06-22T05:38:12.073Z,933.22
2017-06-22T05:38:40.363Z,933.27
2017-06-22T05:39:08.435Z,933.29
2017-06-22T05:39:36.706Z,933.27
2017-06-22T05:40:47.823Z,933.27
2017-06-22T05:41:15.894Z,933.26
2017-06-22T05:41:44.185Z,933.25
2017-06-22T05:42:12.257Z,933.26
2017-06-22T05:42:40.517Z,933.28
2017-06-22T05:43:08.776Z,933.24
2017-06-22T05:43:36.964Z,933.25
2017-06-22T05:44:05.228Z,933.2
2017-06-22T05:44:33.331Z,933.25
2017-06-22T05:45:01.500Z,933.2
2017-06-22T05:45:29.585Z,933.22
2017-06-22T05:46:40.797Z,933.19
2017-06-22T05:47:08.869Z,933.19
2017-06-22T05:47:37.161Z,933.18
2017-06-22T05:48:05.328Z,933.18
2017-06-22T05:48:33.401Z,933.2
2017-06-22T05:49:01.655Z,933.17
2017-06-22T05:49:29.938Z,933.15
2017-06-22T05:49:58.205Z,933.18
2017-06-22T05:50:26.403Z,933.18
2017-06-22T05:50:54.670Z,933.12
2017-06-22T05:51:22.560Z,933.15
2017-06-22T05:52:33.771Z,933.16
2017-06-22T05:53:02.039Z,933.17
2017-06-22T05:53:30.314Z,933.13
2017-06-22T05:53:58.388Z,933.15
2017-06-22T05:54:26.559Z,933.14
2017-06-22T05:54:54.819Z,933.14
2017-06-22T05:55:23.103Z,933.15
2017-06-22T05:55:51.276Z,933.12
2017-06-22T05:56:19.568Z,933.16
2017-06-22T05:56:47.741Z,933.18
2017-06-22T05:57:15.913Z,933.16
2017-06-22T05:58:27.220Z,933.15
2017-06-22T05:58:55.480Z,933.12
2017-06-22T05:59:23.768Z,933.14
2017-06-22T05:59:52.033Z,933.15
2017-06-22T06:00:20.197Z,933.09
2017-06-22T06:00:48.453Z,933.09
2017-06-22T06:01:16.733Z,933.06
2017-06-22T06:01:44.999Z,933.06
2017-06-22T06:02:13.196Z,933.07
2017-06-22T06:02:41.366Z,933.08
2017-06-22T06:03:09.635Z,933.06
2017-06-22T06:04:20.849Z,933.02
2017-06-22T06:04:49.013Z,933.03
2017-06-22T06:05:17.305Z,933.01
2017-06-22T06:05:45.572Z,932.99
2017-06-22T06:06:13.832Z,933.03
2017-06-22T06:06:42.087Z,933.02
2017-06-22T06:07:10.366Z,933.01
2017-06-22T06:07:38.630Z,933.02
2017-06-22T06:08:06.832Z,933.05
2017-06-22T06:08:35.098Z,933.04
2017-06-22T06:09:03.088Z,933.06
2017-06-22T06:10:14.392Z,933
2017-06-22T06:10:42.458Z,932.99
2017-06-22T06:11:10.659Z,933.01
2017-06-22T06:11:38.919Z,933.03
2017-06-22T06:12:07.094Z,932.99
2017-06-22T06:12:35.259Z,932.98
2017-06-22T06:13:03.452Z,933.01
2017-06-22T06:13:31.720Z,933.01
2017-06-22T06:13:59.915Z,932.99
2017-06-22T06:14:28.177Z,932.95
2017-06-22T06:14:56.446Z,932.97
2017-06-22T06:16:07.564Z,933.01
2017-06-22T06:16:35.720Z,932.94
2017-06-22T06:17:04.012Z,932.98
2017-06-22T06:17:32.177Z,932.97
2017-06-22T06:18:00.341Z,932.97
2017-06-22T06:18:28.595Z,932.95
2017-06-22T06:18:56.778Z,932.97
2017-06-22T06:19:25.046Z,932.98
2017-06-22T06:19:53.149Z,932.97
2017-06-22T06:20:21.340Z,932.99
2017-06-22T06:20:49.613Z,932.98
2017-06-22T06:22:00.917Z,932.96
2017-06-22T06:22:29.176Z,932.94
2017-06-22T06:22:57.375Z,932.92
2017-06-22T06:23:25.448Z,932.95
2017-06-22T06:23:53.616Z,932.97
2017-06-22T06:24:21.873Z,932.96
2017-06-22T06:24:50.158Z,932.96
2017-06-22T06:25:18.327Z,932.96
2017-06-22T06:25:46.517Z,932.91
2017-06-22T06:26:14.778Z,932.89
2017-06-22T06:26:42.958Z,932.91
2017-06-22T06:27:54.173Z,932.93
2017-06-22T06:28:22.427Z,932.89
2017-06-22T06:28:50.625Z,932.91
2017-06-22T06:29:18.794Z,932.89
2017-06-22T06:29:47.055Z,932.92
2017-06-22T06:30:15.221Z,932.91
2017-06-22T06:30:43.509Z,932.89
2017-06-22T06:31:11.778Z,932.92
2017-06-22T06:31:39.783Z,932.94
2017-06-22T06:32:08.048Z,932.9
2017-06-22T06:32:36.225Z,932.9
2017-06-22T06:33:47.530Z,932.94
2017-06-22T06:34:15.693Z,932.93
2017-06-22T06:34:43.987Z,932.92
2017-06-22T06:35:12.159Z,932.91
2017-06-22T06:35:40.234Z,932.92
2017-06-22T06:36:08.396Z,932.9
2017-06-22T06:36:36.681Z,932.93
2017-06-22T06:37:04.856Z,932.9
2017-06-22T06:37:33.045Z,932.92
2017-06-22T06:38:01.307Z,932.93
2017-06-22T06:38:29.484Z,932.92
2017-06-22T06:39:40.713Z,932.9
2017-06-22T06:40:08.862Z,932.89
2017-06-22T06:40:37.149Z,932.91
2017-06-22T06:41:05.416Z,932.9
2017-06-22T06:41:33.490Z,932.89